Time;durP1;ratioP1;P1;durP2;ratioP2;P2;SDS_P1;SDS_P2;PMS_P1;PMS_P2;Temp;Humidity;BMP_temperature;BMP_pressure;BME280_temperature;BME280_humidity;BME280_pressure;Samples;Min_cycle;Max_cycle;Signal;HPM_P1;HPM_P2
2022/09/12 00:01:24;;;;;;;11.40;10.13;;;15.60;99.90;;;;;;5050267;28;20068;-72
2022/09/12 00:03:58;;;;;;;11.20;10.02;;;15.60;99.90;;;;;;5033831;28;20132;-72
2022/09/12 00:06:27;;;;;;;10.50;9.43;;;16.50;99.90;;;;;;5050565;28;20037;-72
2022/09/12 00:08:57;;;;;;;13.27;10.98;;;15.60;99.90;;;;;;5050646;28;20614;-73
2022/09/12 00:11:24;;;;;;;9.82;8.93;;;15.50;99.90;;;;;;5051631;28;20044;-72
2022/09/12 00:13:50;;;;;;;9.52;8.57;;;15.70;99.90;;;;;;5050691;28;20052;-72
2022/09/12 00:16:20;;;;;;;9.82;8.85;;;15.30;99.90;;;;;;5050142;28;20037;-71
2022/09/12 00:18:46;;;;;;;9.25;7.72;;;15.60;99.90;;;;;;5050612;28;20037;-72
2022/09/12 00:21:12;;;;;;;11.77;9.05;;;15.60;99.90;;;;;;5050205;28;20064;-72
2022/09/12 00:23:37;;;;;;;9.13;8.23;;;15.60;99.90;;;;;;5050094;28;20079;-72
2022/09/12 00:26:05;;;;;;;9.35;8.40;;;15.40;99.90;;;;;;5050263;28;20099;-72
2022/09/12 00:28:33;;;;;;;10.85;8.80;;;15.40;99.90;;;;;;5051366;28;20080;-71
2022/09/12 00:31:02;;;;;;;11.45;7.95;;;15.30;99.90;;;;;;5051145;28;20037;-73
2022/09/12 00:33:28;;;;;;;8.95;8.15;;;15.80;99.90;;;;;;5051306;28;20081;-73
2022/09/12 00:35:53;;;;;;;8.85;8.05;;;15.40;99.90;;;;;;5049773;28;20075;-71
2022/09/12 00:38:19;;;;;;;10.20;8.68;;;15.30;99.90;;;;;;5050098;28;20041;-72
2022/09/12 00:40:45;;;;;;;9.10;8.18;;;15.40;99.90;;;;;;5051188;28;20040;-71
2022/09/12 00:43:40;;;;;;;10.88;8.05;;;15.40;99.90;;;;;;5033623;28;20045;-73
2022/09/12 00:46:20;;;;;;;8.95;8.15;;;15.30;99.90;;;;;;5051197;28;20067;-72
2022/09/12 00:49:06;;;;;;;9.95;7.90;;;15.10;99.90;;;;;;5051424;28;20072;-74
2022/09/12 00:51:43;;;;;;;9.32;8.30;;;15.20;99.90;;;;;;5049665;28;20076;-73
2022/09/12 00:54:14;;;;;;;10.43;8.55;;;15.00;99.90;;;;;;5051162;28;20120;-73
2022/09/12 00:56:42;;;;;;;8.85;7.70;;;15.20;99.90;;;;;;5050226;28;20406;-72
2022/09/12 00:59:24;;;;;;;8.32;7.53;;;15.40;99.90;;;;;;5051528;28;20490;-72
2022/09/12 01:01:56;;;;;;;11.85;9.32;;;15.20;99.90;;;;;;5053788;28;20041;-73
2022/09/12 01:04:24;;;;;;;9.38;7.35;;;15.00;99.90;;;;;;5054652;28;20099;-72
2022/09/12 01:06:57;;;;;;;8.40;7.60;;;14.90;99.90;;;;;;5053238;28;20048;-72
2022/09/12 01:09:24;;;;;;;9.30;8.02;;;15.00;99.90;;;;;;5054514;28;20170;-71
2022/09/12 01:11:51;;;;;;;8.43;7.53;;;15.10;99.90;;;;;;5070820;28;20044;-71
2022/09/12 01:14:19;;;;;;;8.90;7.93;;;14.90;99.90;;;;;;5073499;28;20033;-73
2022/09/12 01:16:52;;;;;;;9.15;8.25;;;14.90;99.90;;;;;;5071723;28;20045;-73
2022/09/12 01:19:38;;;;;;;8.48;7.50;;;14.80;99.90;;;;;;5053743;28;20049;-73
2022/09/12 01:22:18;;;;;;;10.75;7.47;;;15.00;99.90;;;;;;5023033;28;20049;-71
2022/09/12 01:25:06;;;;;;;10.20;8.63;;;14.90;99.90;;;;;;5054182;28;20414;-71
2022/09/12 01:27:39;;;;;;;8.05;7.25;;;14.90;99.90;;;;;;5053513;28;20467;-72
2022/09/12 01:30:22;;;;;;;8.67;7.87;;;14.90;99.90;;;;;;5053925;28;20048;-71
2022/09/12 01:33:15;;;;;;;9.32;8.32;;;14.90;99.90;;;;;;5054705;28;20418;-74
2022/09/12 01:36:01;;;;;;;8.53;7.63;;;14.90;99.90;;;;;;5052980;28;20073;-71
2022/09/12 01:38:38;;;;;;;8.18;7.38;;;15.00;99.90;;;;;;5054128;28;20037;-73
2022/09/12 01:41:18;;;;;;;8.15;7.35;;;;;;;;;;5053987;28;20335;-71
2022/09/12 01:43:49;;;;;;;9.00;8.10;;;;;;;;;;5035981;28;20048;-71
2022/09/12 01:46:16;;;;;;;8.95;8.05;;;14.80;99.90;;;;;;5052748;28;20041;-71
2022/09/12 01:49:00;;;;;;;8.30;7.32;;;14.80;99.90;;;;;;5035948;28;20076;-74
2022/09/12 01:51:44;;;;;;;8.73;7.05;;;14.70;99.90;;;;;;5053715;28;20052;-73
2022/09/12 01:54:17;;;;;;;10.38;8.13;;;14.80;99.90;;;;;;5053527;28;20467;-72
2022/09/12 01:56:51;;;;;;;8.57;7.75;;;14.60;99.90;;;;;;5052469;28;20380;-73
2022/09/12 01:59:48;;;;;;;8.77;7.88;;;14.80;99.90;;;;;;5054041;28;20499;-72
2022/09/12 02:02:20;;;;;;;9.68;8.32;;;14.80;99.90;;;;;;5036671;28;20064;-75
2022/09/12 02:05:13;;;;;;;9.07;8.18;;;14.70;99.90;;;;;;5053524;28;20052;-73
2022/09/12 02:07:55;;;;;;;8.65;7.82;;;14.60;99.90;;;;;;5052546;28;20407;-72
2022/09/12 02:10:31;;;;;;;9.85;8.45;;;14.60;99.90;;;;;;5051445;28;20134;-72
2022/09/12 02:13:10;;;;;;;11.35;8.88;;;14.70;99.90;;;;;;5053184;28;20041;-72
2022/09/12 02:15:44;;;;;;;10.45;8.68;;;14.50;99.90;;;;;;5053454;28;20051;-72
2022/09/12 02:18:14;;;;;;;10.27;9.20;;;14.50;99.90;;;;;;5053449;28;20425;-73
2022/09/12 02:20:42;;;;;;;11.60;9.18;;;14.40;99.90;;;;;;5052371;28;20048;-73
2022/09/12 02:23:15;;;;;;;10.35;9.05;;;14.50;99.90;;;;;;5053137;28;20037;-76
2022/09/12 02:25:45;;;;;;;12.70;9.52;;;14.60;99.90;;;;;;5035212;28;20096;-72
2022/09/12 02:28:20;;;;;;;11.35;9.15;;;14.60;99.90;;;;;;5053261;28;20041;-73
2022/09/12 02:31:05;;;;;;;10.65;9.55;;;14.40;99.90;;;;;;5051838;28;20055;-71
2022/09/12 02:33:50;;;;;;;11.20;9.70;;;14.40;99.90;;;;;;5051588;28;20052;-72
2022/09/12 02:36:28;;;;;;;13.95;9.52;;;14.60;99.90;;;;;;5051612;28;20197;-72
2022/09/12 02:38:55;;;;;;;11.15;9.10;;;14.40;99.90;;;;;;5051910;28;20045;-71
2022/09/12 02:41:21;;;;;;;11.98;10.18;;;14.50;99.90;;;;;;5051674;28;20047;-71
2022/09/12 02:43:49;;;;;;;11.60;9.32;;;14.40;99.90;;;;;;5052741;28;20041;-72
2022/09/12 02:46:38;;;;;;;11.63;9.70;;;14.50;99.90;;;;;;5051539;28;20041;-72
2022/09/12 02:49:03;;;;;;;13.27;9.68;;;14.40;99.90;;;;;;5051672;28;20102;-72
2022/09/12 02:51:29;;;;;;;12.27;10.15;;;14.60;99.90;;;;;;5051766;28;20128;-72
2022/09/12 02:53:56;;;;;;;11.68;10.00;;;14.20;99.90;;;;;;5052394;28;20116;-72
2022/09/12 02:56:28;;;;;;;13.68;10.70;;;14.20;99.90;;;;;;5051792;28;20033;-72
2022/09/12 02:59:00;;;;;;;13.07;10.13;;;14.50;99.90;;;;;;5051463;28;20048;-72
2022/09/12 03:01:45;;;;;;;13.63;11.15;;;14.30;99.90;;;;;;5051239;28;20037;-72
2022/09/12 03:04:48;;;;;;;11.55;10.30;;;14.20;99.90;;;;;;5051278;28;20053;-72
2022/09/12 03:07:43;;;;;;;14.70;11.15;;;14.20;99.90;;;;;;5051501;28;20037;-73
2022/09/12 03:10:49;;;;;;;13.77;11.18;;;14.30;99.90;;;;;;5052474;28;20072;-72
2022/09/12 03:13:18;;;;;;;12.55;10.60;;;14.10;99.90;;;;;;5052059;28;20037;-72
2022/09/12 03:16:05;;;;;;;14.05;11.35;;;14.10;99.90;;;;;;5052235;28;20041;-73
2022/09/12 03:18:40;;;;;;;15.68;13.07;;;14.30;99.90;;;;;;5052525;28;20083;-72
2022/09/12 03:21:23;;;;;;;16.35;13.07;;;14.40;99.90;;;;;;5052038;28;20514;-73
2022/09/12 03:24:18;;;;;;;14.85;12.75;;;14.10;99.90;;;;;;5051255;28;20044;-74
2022/09/12 03:26:50;;;;;;;15.45;12.82;;;14.20;99.90;;;;;;5035903;28;20044;-72
2022/09/12 03:29:17;;;;;;;20.77;14.20;;;14.30;99.90;;;;;;5052640;28;20048;-72
2022/09/12 03:31:52;;;;;;;18.27;13.40;;;14.40;99.90;;;;;;5051772;28;20072;-71
2022/09/12 03:34:24;;;;;;;17.40;13.93;;;14.10;99.90;;;;;;5051941;28;20029;-72
2022/09/12 03:36:51;;;;;;;15.70;13.20;;;14.20;99.90;;;;;;5034736;28;20041;-73
2022/09/12 03:39:22;;;;;;;16.63;13.95;;;14.20;99.90;;;;;;5034244;28;20091;-72
2022/09/12 03:41:57;;;;;;;17.58;14.90;;;14.20;99.90;;;;;;5052241;28;20037;-73
2022/09/12 03:44:28;;;;;;;19.85;13.52;;;14.10;99.90;;;;;;5051816;28;20044;-74
2022/09/12 03:46:56;;;;;;;18.38;14.55;;;14.30;99.90;;;;;;5051056;28;20124;-74
2022/09/12 03:49:22;;;;;;;19.70;15.63;;;14.30;99.90;;;;;;5052016;28;20076;-73
2022/09/12 03:51:48;;;;;;;21.65;15.35;;;14.10;99.90;;;;;;5051846;28;20079;-73
2022/09/12 03:54:13;;;;;;;19.80;15.63;;;14.00;99.90;;;;;;5051421;28;20087;-73
2022/09/12 03:56:40;;;;;;;19.75;15.70;;;14.10;99.90;;;;;;5033886;28;20040;-74
2022/09/12 03:59:06;;;;;;;21.50;14.68;;;14.20;99.90;;;;;;5051635;28;20116;-73
2022/09/12 04:01:32;;;;;;;21.50;16.13;;;14.30;99.90;;;;;;5050333;28;20040;-71
2022/09/12 04:03:58;;;;;;;19.00;15.63;;;14.00;99.90;;;;;;5051454;28;20116;-72
2022/09/12 04:06:23;;;;;;;24.23;17.13;;;14.20;99.90;;;;;;5051674;28;20045;-72
2022/09/12 04:08:51;;;;;;;23.20;16.55;;;14.20;99.90;;;;;;5050391;28;20045;-72
2022/09/12 04:11:18;;;;;;;20.77;15.77;;;14.20;99.90;;;;;;5050466;28;20128;-72
2022/09/12 04:13:45;;;;;;;20.35;16.25;;;15.00;99.90;;;;;;5033653;28;20095;-73
2022/09/12 04:16:12;;;;;;;23.40;17.85;;;14.10;99.90;;;;;;5050140;28;20048;-72
2022/09/12 04:18:38;;;;;;;19.50;15.65;;;14.30;99.90;;;;;;5050478;28;20355;-71
2022/09/12 04:21:13;;;;;;;21.25;16.20;;;15.50;99.90;;;;;;5050133;28;20033;-71
2022/09/12 04:23:39;;;;;;;20.88;16.50;;;14.10;99.90;;;;;;5051481;28;20041;-71
2022/09/12 04:26:05;;;;;;;23.60;17.05;;;14.40;99.90;;;;;;5051045;28;20171;-71
2022/09/12 04:28:31;;;;;;;23.85;17.67;;;14.30;99.90;;;;;;5033587;28;20095;-73
2022/09/12 04:31:02;;;;;;;22.35;17.08;;;14.20;99.90;;;;;;5050165;28;20048;-73
2022/09/12 04:33:28;;;;;;;22.95;17.50;;;14.30;99.90;;;;;;5034190;28;20037;-73
2022/09/12 04:35:53;;;;;;;22.85;16.77;;;14.30;99.90;;;;;;5055131;28;20190;-72
2022/09/12 04:38:19;;;;;;;24.55;16.63;;;14.60;99.90;;;;;;5054089;28;20036;-73
2022/09/12 04:40:44;;;;;;;27.83;18.52;;;14.30;99.90;;;;;;5053857;28;20508;-73
2022/09/12 04:43:10;;;;;;;22.60;17.25;;;14.30;99.90;;;;;;5037343;28;20037;-73
2022/09/12 04:45:36;;;;;;;21.23;16.88;;;14.30;99.90;;;;;;5053788;28;20040;-73
2022/09/12 04:48:02;;;;;;;23.25;17.75;;;14.50;99.90;;;;;;5054081;28;20037;-73
2022/09/12 04:50:27;;;;;;;24.55;18.48;;;14.40;99.90;;;;;;5053978;28;20045;-72
2022/09/12 04:52:54;;;;;;;23.60;18.38;;;14.40;99.90;;;;;;5066800;28;20033;-73
2022/09/12 04:55:21;;;;;;;23.40;18.30;;;14.40;99.90;;;;;;5073694;28;20049;-73
2022/09/12 04:57:47;;;;;;;25.13;18.52;;;14.40;99.90;;;;;;5074851;28;20545;-73
2022/09/12 05:00:13;;;;;;;23.45;18.75;;;14.30;99.90;;;;;;5056535;28;20070;-73
2022/09/12 05:02:40;;;;;;;24.58;18.42;;;14.50;99.90;;;;;;5054162;28;20041;-73
2022/09/12 05:05:12;;;;;;;25.15;19.13;;;14.40;99.90;;;;;;5054610;28;20052;-74
2022/09/12 05:07:38;;;;;;;23.93;17.77;;;14.60;99.90;;;;;;5054907;28;20048;-72
2022/09/12 05:10:03;;;;;;;26.10;19.23;;;14.60;99.90;;;;;;5053201;28;20080;-74
2022/09/12 05:12:30;;;;;;;23.95;18.73;;;14.50;99.90;;;;;;5054648;28;20044;-72
2022/09/12 05:14:59;;;;;;;25.23;18.02;;;14.70;99.90;;;;;;5054325;28;20041;-73
2022/09/12 05:17:27;;;;;;;26.65;19.58;;;14.80;99.90;;;;;;5053333;28;20477;-72
2022/09/12 05:19:53;;;;;;;26.85;19.73;;;14.70;99.90;;;;;;5054505;28;20064;-73
2022/09/12 05:22:18;;;;;;;29.75;20.80;;;15.20;99.90;;;;;;5054208;28;20501;-71
2022/09/12 05:24:44;;;;;;;29.00;20.25;;;14.80;99.90;;;;;;5053950;28;20037;-71
2022/09/12 05:27:09;;;;;;;23.70;17.80;;;14.70;99.90;;;;;;5053309;28;20048;-72
2022/09/12 05:29:35;;;;;;;28.02;20.75;;;;;;;;;;5036710;28;20041;-72
2022/09/12 05:32:02;;;;;;;31.90;20.35;;;14.80;99.90;;;;;;5089487;22;20043;-75
2022/09/12 05:34:27;;;;;;;27.20;19.60;;;14.90;99.90;;;;;;5072974;28;20092;-75
2022/09/12 05:36:53;;;;;;;30.08;21.42;;;14.70;99.90;;;;;;5055568;28;20405;-75
2022/09/12 05:39:19;;;;;;;25.13;18.80;;;15.00;99.90;;;;;;5072345;28;20037;-75
2022/09/12 05:41:45;;;;;;;29.98;20.92;;;14.80;99.90;;;;;;5073664;28;20045;-75
2022/09/12 05:44:12;;;;;;;30.35;21.70;;;14.80;99.90;;;;;;5071991;28;20529;-75
2022/09/12 05:46:41;;;;;;;29.38;20.35;;;14.90;99.90;;;;;;5071264;28;20494;-75
2022/09/12 05:49:10;;;;;;;32.03;22.90;;;14.90;99.90;;;;;;5072284;28;20089;-75
2022/09/12 05:51:38;;;;;;;30.30;21.60;;;15.00;99.90;;;;;;5073170;28;20123;-75
2022/09/12 05:54:06;;;;;;;30.33;22.08;;;15.00;99.90;;;;;;5054993;28;20055;-75
2022/09/12 05:56:35;;;;;;;34.42;22.92;;;15.00;99.90;;;;;;5055234;28;20044;-75
2022/09/12 05:59:04;;;;;;;29.08;20.42;;;15.00;99.90;;;;;;5068906;28;20572;-74
2022/09/12 06:01:32;;;;;;;29.88;21.05;;;15.00;99.90;;;;;;5077472;28;20553;-73
2022/09/12 06:03:59;;;;;;;30.70;21.20;;;15.00;99.90;;;;;;5082819;28;20047;-73
2022/09/12 06:06:27;;;;;;;29.45;20.65;;;15.10;99.90;;;;;;5076165;28;20115;-74
2022/09/12 06:08:57;;;;;;;36.53;22.70;;;14.80;99.90;;;;;;5081666;28;20042;-74
2022/09/12 06:11:25;;;;;;;29.25;21.08;;;15.00;99.90;;;;;;5079663;28;20457;-76
2022/09/12 06:13:51;;;;;;;31.23;22.58;;;15.20;99.90;;;;;;5067175;28;20036;-77
2022/09/12 06:16:20;;;;;;;35.08;23.95;;;15.10;99.90;;;;;;5071347;28;20046;-74
2022/09/12 06:18:50;;;;;;;34.10;22.80;;;16.30;99.90;;;;;;5076652;28;20040;-75
2022/09/12 06:21:17;;;;;;;28.90;20.88;;;15.30;99.90;;;;;;5055866;28;20067;-76
2022/09/12 06:23:45;;;;;;;37.35;23.30;;;15.10;99.90;;;;;;5078502;28;20044;-76
2022/09/12 06:26:11;;;;;;;35.97;22.75;;;15.20;99.90;;;;;;5058258;28;20039;-76
2022/09/12 06:28:39;;;;;;;37.80;25.67;;;15.30;99.90;;;;;;5077828;28;20044;-75
2022/09/12 06:31:11;;;;;;;37.78;25.30;;;15.40;99.90;;;;;;5078416;28;20470;-75
2022/09/12 06:33:40;;;;;;;37.97;25.13;;;15.30;99.90;;;;;;5075867;28;20173;-74
2022/09/12 06:36:09;;;;;;;39.70;26.75;;;15.30;99.90;;;;;;5080816;28;20036;-75
2022/09/12 06:38:34;;;;;;;39.38;25.45;;;15.30;99.90;;;;;;5080029;28;20574;-76
2022/09/12 06:41:04;;;;;;;45.00;28.48;;;15.30;99.90;;;;;;5079485;28;20040;-75
2022/09/12 06:43:30;;;;;;;43.08;27.25;;;15.40;99.90;;;;;;5079680;28;20478;-74
2022/09/12 06:45:56;;;;;;;42.75;28.23;;;15.50;99.90;;;;;;5071173;28;20097;-75
2022/09/12 06:48:22;;;;;;;38.25;26.65;;;15.60;99.90;;;;;;5071279;28;20505;-75
2022/09/12 06:50:59;;;;;;;40.58;26.83;;;15.60;99.90;;;;;;5069754;28;20041;-75
2022/09/12 06:53:26;;;;;;;44.92;28.17;;;15.70;99.90;;;;;;5070463;28;20449;-75
2022/09/12 06:56:00;;;;;;;43.85;28.05;;;15.60;99.90;;;;;;5053122;28;20044;-75
2022/09/12 06:58:27;;;;;;;41.35;27.58;;;15.60;99.90;;;;;;5070136;28;20045;-75
2022/09/12 07:01:01;;;;;;;47.05;29.67;;;15.50;99.90;;;;;;5052370;28;20082;-75
2022/09/12 07:03:26;;;;;;;44.60;28.95;;;16.60;99.90;;;;;;5070755;28;20439;-75
2022/09/12 07:05:52;;;;;;;46.85;28.52;;;15.60;99.90;;;;;;5070080;28;20059;-75
2022/09/12 07:08:17;;;;;;;41.85;27.92;;;15.80;99.90;;;;;;5058868;28;20036;-75
2022/09/12 07:10:44;;;;;;;41.80;27.83;;;15.60;99.90;;;;;;5060071;28;20042;-75
2022/09/12 07:13:09;;;;;;;51.20;30.42;;;15.90;99.90;;;;;;5066682;28;20053;-75
2022/09/12 07:15:35;;;;;;;52.58;30.38;;;15.80;99.90;;;;;;5052885;28;20529;-75
2022/09/12 07:18:01;;;;;;;41.70;29.70;;;15.80;99.90;;;;;;5050238;28;20039;-74
2022/09/12 07:20:27;;;;;;;43.83;27.70;;;16.60;99.90;;;;;;5070092;28;20469;-73
2022/09/12 07:22:52;;;;;;;49.00;31.40;;;16.00;99.90;;;;;;5069605;28;20071;-75
2022/09/12 07:25:18;;;;;;;48.10;29.35;;;15.70;99.90;;;;;;5068060;28;20032;-75
2022/09/12 07:27:43;;;;;;;51.90;31.75;;;16.00;99.90;;;;;;5066084;28;20483;-75
2022/09/12 07:30:09;;;;;;;44.25;27.77;;;17.30;99.90;;;;;;5059330;28;20055;-77
2022/09/12 07:32:35;;;;;;;49.60;30.75;;;18.00;99.90;;;;;;5070123;28;20456;-78
2022/09/12 07:35:01;;;;;;;48.22;29.35;;;16.10;99.90;;;;;;5068715;28;20041;-77
2022/09/12 07:37:29;;;;;;;45.60;28.25;;;16.30;99.90;;;;;;5070219;28;20037;-77
2022/09/12 07:39:56;;;;;;;46.97;30.50;;;16.40;99.90;;;;;;5069280;28;20044;-77
2022/09/12 07:42:21;;;;;;;47.40;29.20;;;16.30;99.90;;;;;;5070155;28;20097;-76
2022/09/12 07:44:47;;;;;;;47.58;29.35;;;16.30;99.90;;;;;;5068715;28;20512;-76
2022/09/12 07:47:12;;;;;;;51.70;30.65;;;16.10;99.90;;;;;;5068464;28;20046;-75
2022/09/12 07:49:38;;;;;;;51.95;31.33;;;16.50;99.90;;;;;;5068706;28;20124;-76
2022/09/12 07:52:04;;;;;;;52.22;31.52;;;16.50;99.90;;;;;;5068755;28;20084;-76
2022/09/12 07:54:32;;;;;;;48.72;31.48;;;16.50;99.90;;;;;;5068884;28;20040;-75
2022/09/12 07:56:57;;;;;;;49.80;31.15;;;17.30;99.90;;;;;;5068874;28;20047;-76
2022/09/12 07:59:23;;;;;;;51.33;31.35;;;16.70;99.90;;;;;;5052404;28;20040;-76
2022/09/12 08:01:48;;;;;;;51.42;31.70;;;16.60;99.90;;;;;;5068471;28;20036;-76
2022/09/12 08:04:14;;;;;;;50.67;31.10;;;18.00;99.90;;;;;;5051798;28;20045;-76
2022/09/12 08:06:40;;;;;;;53.90;33.15;;;16.80;99.90;;;;;;5070180;28;20524;-77
2022/09/12 08:09:06;;;;;;;51.85;33.20;;;16.70;99.90;;;;;;5072600;28;20126;-77
2022/09/12 08:11:32;;;;;;;51.13;33.42;;;17.00;99.90;;;;;;5073279;28;20083;-76
2022/09/12 08:14:00;;;;;;;55.30;34.72;;;17.00;99.90;;;;;;5072801;28;20041;-76
2022/09/12 08:16:29;;;;;;;52.50;32.65;;;17.90;99.90;;;;;;5073204;28;20084;-77
2022/09/12 08:18:54;;;;;;;48.67;32.47;;;17.30;99.90;;;;;;5073412;28;20037;-76
2022/09/12 08:21:24;;;;;;;57.90;36.88;;;17.10;99.90;;;;;;5055504;28;20061;-76
2022/09/12 08:23:55;;;;;;;51.80;32.42;;;17.60;99.90;;;;;;5074401;28;20148;-76
2022/09/12 08:26:21;;;;;;;53.65;33.30;;;17.50;99.90;;;;;;5074261;28;20036;-76
2022/09/12 08:28:46;;;;;;;56.75;33.72;;;19.10;99.90;;;;;;5073993;28;20032;-76
2022/09/12 08:31:15;;;;;;;55.35;35.13;;;17.60;99.90;;;;;;5072864;28;20086;-76
2022/09/12 08:33:41;;;;;;;56.17;35.47;;;19.10;99.90;;;;;;5054383;28;20052;-76
2022/09/12 08:36:23;;;;;;;52.20;33.72;;;17.60;99.90;;;;;;5071682;28;20037;-76
2022/09/12 08:39:00;;;;;;;54.83;34.70;;;18.00;99.90;;;;;;5070041;28;20037;-69
2022/09/12 08:41:37;;;;;;;55.05;35.47;;;18.00;99.90;;;;;;5071748;28;20401;-72
2022/09/12 08:44:26;;;;;;;58.15;34.90;;;18.00;99.90;;;;;;5071082;28;20049;-75
2022/09/12 08:47:03;;;;;;;62.40;37.33;;;18.30;99.90;;;;;;5070943;28;20040;-76
2022/09/12 08:49:58;;;;;;;57.95;35.58;;;17.10;99.90;;;;;;5055911;28;20048;-74
2022/09/12 08:52:41;;;;;;;62.10;37.58;;;18.10;99.90;;;;;;5059011;28;20049;-76
2022/09/12 08:55:35;;;;;;;68.57;38.50;;;18.30;99.90;;;;;;5073467;28;20072;-74
2022/09/12 08:58:15;;;;;;;56.47;34.72;;;18.50;99.90;;;;;;5054313;28;20070;-76
2022/09/12 09:00:50;;;;;;;66.90;37.88;;;18.50;99.90;;;;;;5070578;28;20119;-76
2022/09/12 09:03:42;;;;;;;55.60;34.90;;;18.60;99.90;;;;;;5073146;28;20086;-75
2022/09/12 09:06:35;;;;;;;61.72;35.53;;;18.50;99.90;;;;;;5072505;28;20045;-75
2022/09/12 09:09:10;;;;;;;67.55;37.88;;;18.60;99.90;;;;;;5072960;28;20055;-76
2022/09/12 09:11:54;;;;;;;58.95;34.65;;;18.90;99.90;;;;;;5066506;28;20041;-75
2022/09/12 09:14:47;;;;;;;64.32;36.28;;;19.20;99.90;;;;;;5052389;28;20041;-75
2022/09/12 09:17:27;;;;;;;61.30;37.30;;;18.90;99.90;;;;;;5067582;28;20040;-74
2022/09/12 09:20:32;;;;;;;59.83;34.88;;;18.90;99.90;;;;;;5072076;28;20120;-74
2022/09/12 09:23:14;;;;;;;112.10;38.97;;;18.90;99.90;;;;;;5073327;28;20036;-73
2022/09/12 09:25:54;;;;;;;67.75;34.05;;;18.90;99.90;;;;;;5055256;28;20033;-74
2022/09/12 09:28:25;;;;;;;60.47;34.00;;;19.10;99.90;;;;;;5073388;28;20398;-74
2022/09/12 09:30:51;;;;;;;64.78;33.10;;;19.30;99.90;;;;;;5070797;28;20111;-74
2022/09/12 09:33:29;;;;;;;82.57;34.47;;;19.40;99.90;;;;;;5071996;28;20198;-74
2022/09/12 09:36:15;;;;;;;57.50;32.13;;;19.30;99.90;;;;;;5071015;28;20033;-75
2022/09/12 09:38:48;;;;;;;53.40;30.58;;;19.40;99.90;;;;;;5071406;28;20066;-75
2022/09/12 09:41:20;;;;;;;62.25;29.55;;;19.20;99.90;;;;;;5055156;28;20398;-75
2022/09/12 09:43:46;;;;;;;53.67;29.73;;;19.10;99.90;;;;;;5070663;28;20072;-75
2022/09/12 09:46:12;;;;;;;75.18;28.80;;;20.50;99.90;;;;;;5071434;28;20094;-75
2022/09/12 09:48:43;;;;;;;50.08;26.85;;;20.10;99.90;;;;;;5071209;28;20517;-75
2022/09/12 09:51:09;;;;;;;87.93;31.05;;;21.00;99.90;;;;;;5072246;28;20044;-75
2022/09/12 09:53:41;;;;;;;47.90;26.88;;;20.30;99.90;;;;;;5071974;28;20048;-76
2022/09/12 09:56:14;;;;;;;51.30;27.88;;;20.20;99.90;;;;;;5069614;28;20070;-75
2022/09/12 09:58:40;;;;;;;;;;;21.20;99.90;;;;;;5070959;28;20528;-75
2022/09/12 10:01:14;;;;;;;49.15;24.88;;;20.10;99.90;;;;;;5069992;28;19924;-75
2022/09/12 10:03:47;;;;;;;55.25;26.17;;;19.90;99.90;;;;;;5071101;28;20108;-75
2022/09/12 10:06:22;;;;;;;40.13;21.70;;;19.50;99.90;;;;;;5071854;28;20040;-76
2022/09/12 10:08:49;;;;;;;35.45;20.58;;;20.50;99.90;;;;;;5071273;28;20043;-75
2022/09/12 10:11:14;;;;;;;37.55;21.58;;;20.60;99.90;;;;;;5054623;28;20501;-75
2022/09/12 10:13:55;;;;;;;34.88;21.30;;;20.80;99.90;;;;;;5072539;28;20043;-75
2022/09/12 10:16:23;;;;;;;35.33;19.77;;;22.00;99.90;;;;;;5052716;28;20040;-75
2022/09/12 10:18:51;;;;;;;37.22;20.55;;;21.90;99.90;;;;;;5071731;28;20028;-75
2022/09/12 10:21:42;;;;;;;36.25;21.42;;;21.00;99.90;;;;;;5070619;28;20033;-75
2022/09/12 10:24:24;;;;;;;33.08;19.77;;;21.00;99.90;;;;;;5070333;28;20045;-75
2022/09/12 10:26:57;;;;;;;32.77;19.23;;;21.00;99.90;;;;;;5070469;28;20040;-75
2022/09/12 10:29:32;;;;;;;28.83;16.55;;;21.80;99.90;;;;;;5071452;28;20040;-76
2022/09/12 10:32:05;;;;;;;26.17;16.30;;;22.40;99.90;;;;;;5052213;28;20040;-75
2022/09/12 10:34:36;;;;;;;25.50;16.35;;;21.50;99.90;;;;;;5070403;28;20063;-74
2022/09/12 10:37:07;;;;;;;28.90;18.35;;;21.30;99.90;;;;;;5069998;28;20040;-75
2022/09/12 10:39:35;;;;;;;28.08;15.73;;;21.30;99.90;;;;;;5069206;28;20040;-75
2022/09/12 10:42:02;;;;;;;26.90;15.70;;;23.00;99.90;;;;;;5071016;28;20040;-76
2022/09/12 10:44:30;;;;;;;33.83;17.27;;;21.50;99.90;;;;;;5069794;28;20039;-75
2022/09/12 10:46:57;;;;;;;22.40;14.00;;;21.40;99.90;;;;;;5071686;28;20563;-75
2022/09/12 10:49:36;;;;;;;23.73;13.50;;;21.30;99.90;;;;;;5070741;28;20059;-76
2022/09/12 10:52:22;;;;;;;25.88;14.10;;;22.70;99.90;;;;;;5069911;28;20513;-75
2022/09/12 10:54:48;;;;;;;23.50;11.93;;;21.80;99.90;;;;;;5069903;28;20036;-76
2022/09/12 10:57:29;;;;;;;28.10;15.02;;;21.60;99.90;;;;;;5071212;28;20173;-74
2022/09/12 11:00:15;;;;;;;29.17;16.33;;;22.10;99.90;;;;;;5070654;28;20043;-76
2022/09/12 11:02:57;;;;;;;32.00;14.40;;;22.00;99.90;;;;;;5076264;28;20037;-74
2022/09/12 11:05:46;;;;;;;26.73;13.20;;;22.00;99.90;;;;;;5069414;28;20032;-73
2022/09/12 11:08:32;;;;;;;25.27;12.40;;;22.20;99.90;;;;;;5071561;28;20101;-74
2022/09/12 11:11:25;;;;;;;16.65;11.00;;;22.20;99.90;;;;;;5073801;28;20036;-74
2022/09/12 11:14:02;;;;;;;17.40;11.48;;;22.30;99.90;;;;;;5062266;28;20042;-74
2022/09/12 11:16:56;;;;;;;16.45;10.63;;;22.40;99.90;;;;;;5073022;28;20128;-68
2022/09/12 11:19:53;;;;;;;16.95;11.32;;;22.30;99.90;;;;;;5049999;28;20341;-69
2022/09/12 11:22:22;;;;;;;19.83;13.05;;;22.10;99.90;;;;;;5051092;28;20407;-69
2022/09/12 11:25:11;;;;;;;18.88;11.55;;;22.60;99.90;;;;;;5065286;28;20124;-75
2022/09/12 11:27:45;;;;;;;15.18;10.48;;;22.60;99.90;;;;;;5069542;28;20040;-75
2022/09/12 11:30:13;;;;;;;18.48;11.57;;;22.40;99.90;;;;;;5069501;28;20051;-75
2022/09/12 11:32:54;;;;;;;20.67;12.30;;;22.50;99.90;;;;;;5092499;22;20049;-73
2022/09/12 11:35:29;;;;;;;19.52;12.07;;;22.50;99.90;;;;;;5069781;28;20068;-72
2022/09/12 11:38:13;;;;;;;24.83;14.85;;;22.80;99.90;;;;;;5071359;28;20036;-73
2022/09/12 11:41:03;;;;;;;22.10;14.05;;;22.80;99.90;;;;;;5064753;28;20094;-73
2022/09/12 11:43:44;;;;;;;23.67;13.95;;;22.80;99.90;;;;;;5037619;28;20045;-72
2022/09/12 11:46:37;;;;;;;21.83;13.15;;;23.70;99.90;;;;;;5029566;28;20431;-72
2022/09/12 11:49:20;;;;;;;23.08;14.30;;;23.20;99.90;;;;;;5038659;28;20495;-72
2022/09/12 11:52:14;;;;;;;22.13;13.60;;;23.30;99.90;;;;;;5029895;28;20560;-73
2022/09/12 11:55:14;;;;;;;16.90;10.98;;;23.20;99.90;;;;;;5025340;28;20049;-72
2022/09/12 11:57:52;;;;;;;13.60;9.05;;;23.20;99.90;;;;;;5048455;28;20068;-73
2022/09/12 12:00:21;;;;;;;16.83;9.88;;;23.30;99.90;;;;;;5045229;28;20029;-73
2022/09/12 12:02:54;;;;;;;18.58;12.38;;;23.30;99.90;;;;;;5047222;28;20034;-73
2022/09/12 12:05:41;;;;;;;17.10;11.40;;;23.00;99.90;;;;;;5045479;28;20046;-72
2022/09/12 12:08:08;;;;;;;20.42;12.07;;;23.10;99.90;;;;;;5025125;28;20132;-73
2022/09/12 12:10:38;;;;;;;16.15;10.15;;;23.40;99.90;;;;;;5045478;28;20044;-72
2022/09/12 12:13:15;;;;;;;16.63;11.05;;;23.50;99.90;;;;;;5037535;28;20041;-73
2022/09/12 12:15:47;;;;;;;17.60;10.32;;;23.70;99.90;;;;;;5047540;28;20573;-72
2022/09/12 12:18:19;;;;;;;18.23;10.40;;;23.60;99.90;;;;;;5029186;28;20037;-73
2022/09/12 12:20:45;;;;;;;13.13;9.13;;;23.90;99.90;;;;;;5030202;28;20095;-72
2022/09/12 12:23:32;;;;;;;11.57;7.50;;;23.60;99.90;;;;;;5028997;28;20049;-73
2022/09/12 12:26:02;;;;;;;13.07;8.63;;;23.40;99.70;;;;;;5028255;28;20490;-72
2022/09/12 12:28:56;;;;;;;15.02;9.52;;;23.40;99.90;;;;;;5028879;28;20697;-72
2022/09/12 12:31:22;;;;;;;12.88;10.02;;;24.40;99.90;;;;;;5031207;28;20437;-74
2022/09/12 12:33:48;;;;;;;15.93;9.70;;;23.60;99.90;;;;;;5041266;28;20099;-72
2022/09/12 12:36:35;;;;;;;12.45;8.30;;;24.10;99.90;;;;;;5045060;28;20040;-73
2022/09/12 12:39:33;;;;;;;10.98;8.52;;;23.30;99.90;;;;;;5013043;28;20167;-74
2022/09/12 12:42:02;;;;;;;13.52;8.13;;;23.40;99.70;;;;;;5028998;28;20042;-73
2022/09/12 12:44:42;;;;;;;12.43;7.60;;;23.50;99.90;;;;;;5034471;28;20037;-73
2022/09/12 12:47:34;;;;;;;11.82;8.82;;;23.40;99.60;;;;;;5029972;28;20454;-73
2022/09/12 12:50:04;;;;;;;13.02;8.27;;;23.80;99.80;;;;;;5032846;28;20132;-73
2022/09/12 12:52:41;;;;;;;12.70;7.78;;;23.70;99.90;;;;;;5030099;28;20120;-74
2022/09/12 12:55:16;;;;;;;13.90;8.63;;;23.70;99.70;;;;;;5020843;28;20372;-73
2022/09/12 12:57:51;;;;;;;11.77;8.45;;;24.50;99.90;;;;;;5032513;28;20076;-73
2022/09/12 13:00:19;;;;;;;12.80;9.02;;;23.40;99.90;;;;;;5033311;28;20045;-73
2022/09/12 13:03:00;;;;;;;11.95;8.15;;;23.70;99.90;;;;;;5041627;28;20095;-73